Погода Сан-Жозе-ди-Рибамарна 2 недели

Мараньян, Бразилия

18 - 30 июля
  • 18июля
    Сегодня
    +26°
    +30°
    Небольшая облачность
    ВремяПогодаТемператураВлажностьДавлениеВетер, м/сВероятность осадков
    00:00Ясно и безоблачно+26°C79 %761 мм2.3 м/с5 %
    03:00Ясно и безоблачно+26°C84 %761 мм3.4 м/с4 %
    06:00Ясно и безоблачно+26°C83 %761 мм2.7 м/с4 %
    09:00Ясно и безоблачно+28°C74 %762 мм2.5 м/с3 %
    12:00Облачно с прояснениями, небольшой дождь+30°C58 %762 мм3.5 м/с65 %
    15:00Небольшая облачность+29°C57 %760 мм1.5 м/с42 %
    18:00Ясно и безоблачно+28°C71 %761 мм2.9 м/с15 %
    21:00Ясно и безоблачно+28°C77 %762 мм2.5 м/с3 %
  • 19июля
    Пятница
    +26°
    +31°
    Практически безоблачно
    ВремяПогодаТемператураВлажностьДавлениеВетер, м/сВероятность осадков
    00:00Ясно и безоблачно+27°C82 %761 мм2.5 м/с3 %
    03:00Ясно и безоблачно+27°C88 %760 мм2.9 м/с5 %
    06:00Ясно и безоблачно+27°C89 %761 мм2.5 м/с12 %
    09:00Ясно и безоблачно+28°C78 %762 мм3.1 м/с16 %
    12:00Практически безоблачно+30°C57 %762 мм3.2 м/с33 %
    15:00Практически безоблачно+30°C56 %760 мм3.3 м/с13 %
    18:00Практически безоблачно+29°C73 %760 мм3.7 м/с13 %
    21:00Ясно и безоблачно+28°C81 %762 мм3.3 м/с13 %
  • 20июля
    Суббота
    +26°
    +32°
    Практически безоблачно
    ВремяПогодаТемператураВлажностьДавлениеВетер, м/сВероятность осадков
    00:00Ясно и безоблачно+27°C85 %761 мм3.4 м/с13 %
    03:00Ясно и безоблачно+27°C87 %760 мм3.1 м/с24 %
    06:00Ясно и безоблачно+27°C90 %760 мм2.4 м/с36 %
    09:00Ясно и безоблачно+28°C78 %762 мм4.6 м/с50 %
    12:00Практически безоблачно+30°C55 %761 мм3.8 м/с39 %
    15:00Практически безоблачно+30°C52 %759 мм3.7 м/с28 %
    18:00Ясно и безоблачно+30°C60 %759 мм2.1 м/с33 %
    21:00Ясно и безоблачно+28°C78 %761 мм1.5 м/с19 %
  • 21июля
    Воскресенье
    +26°
    +31°
    Ясно и безоблачно
    ВремяПогодаТемператураВлажностьДавлениеВетер, м/сВероятность осадков
    00:00Ясно и безоблачно+27°C84 %761 мм3.4 м/с18 %
    03:00Ясно и безоблачно+27°C89 %759 мм2.6 м/с20 %
    06:00Ясно и безоблачно+26°C91 %760 мм3.2 м/с38 %
    09:00Ясно и безоблачно+28°C76 %761 мм4.8 м/с37 %
    12:00Ясно и безоблачно+31°C47 %760 мм4.3 м/с22 %
    15:00Ясно и безоблачно+31°C43 %758 мм3.3 м/с20 %
    18:00Ясно и безоблачно+29°C67 %759 мм4.0 м/с19 %
    21:00Ясно и безоблачно+28°C79 %761 мм3.9 м/с10 %
Мы используем cookies
Соглашаюсь